Time;durP1;ratioP1;P1;durP2;ratioP2;P2;SDS_P1;SDS_P2;PMS_P1;PMS_P2;Temp;Humidity;BMP_temperature;BMP_pressure;BME280_temperature;BME280_humidity;BME280_pressure;Samples;Min_cycle;Max_cycle;Signal;HPM_P1;HPM_P2
2021/10/05 00:01:48;;;;;;;4.28;1.75;;;10.10;99.90;;;;;;5061786;28;20445;-61
2021/10/05 00:04:14;;;;;;;4.70;1.50;;;10.10;99.90;;;;;;5032658;28;20452;-61
2021/10/05 00:06:40;;;;;;;3.33;1.25;;;10.10;99.90;;;;;;5067977;28;20422;-61
2021/10/05 00:09:06;;;;;;;4.18;1.50;;;10.10;99.90;;;;;;5054517;28;20048;-61
2021/10/05 00:11:32;;;;;;;5.55;1.30;;;10.10;99.90;;;;;;5064709;28;20045;-61
2021/10/05 00:13:58;;;;;;;3.92;1.85;;;10.10;99.90;;;;;;5069510;28;20040;-61
2021/10/05 00:16:24;;;;;;;5.63;1.60;;;10.10;99.90;;;;;;5054995;28;20051;-61
2021/10/05 00:18:50;;;;;;;4.85;1.80;;;10.10;99.90;;;;;;5054658;28;20559;-62
2021/10/05 00:21:17;;;;;;;4.63;1.50;;;10.10;99.90;;;;;;5073192;28;20090;-62
2021/10/05 00:23:42;;;;;;;3.80;1.23;;;10.10;99.90;;;;;;5070734;28;20293;-62
2021/10/05 00:26:08;;;;;;;5.65;1.60;;;10.10;99.90;;;;;;5038354;28;20056;-62
2021/10/05 00:28:33;;;;;;;3.30;1.40;;;10.10;99.90;;;;;;5042187;28;20044;-62
2021/10/05 00:30:59;;;;;;;5.68;1.52;;;10.10;99.90;;;;;;5061690;28;20120;-64
2021/10/05 00:33:25;;;;;;;4.93;1.10;;;10.10;99.90;;;;;;5071148;28;20119;-63
2021/10/05 00:35:50;;;;;;;2.65;1.23;;;10.10;99.90;;;;;;5034633;28;20129;-62
2021/10/05 00:38:16;;;;;;;4.63;1.38;;;10.10;99.90;;;;;;5056964;28;20038;-62
2021/10/05 00:40:42;;;;;;;4.00;1.10;;;10.10;99.90;;;;;;5052665;28;20052;-62
2021/10/05 00:43:08;;;;;;;4.10;1.40;;;10.10;99.90;;;;;;5062608;28;20051;-62
2021/10/05 00:45:35;;;;;;;2.85;1.27;;;10.20;99.90;;;;;;5052425;28;20037;-62
2021/10/05 00:48:00;;;;;;;3.47;1.40;;;10.20;99.90;;;;;;5076352;28;20546;-62
2021/10/05 00:50:26;;;;;;;3.65;1.30;;;10.10;99.90;;;;;;5060238;28;20044;-62
2021/10/05 00:52:52;;;;;;;2.67;1.40;;;10.10;99.90;;;;;;5070540;28;20067;-62
2021/10/05 00:55:18;;;;;;;3.83;1.60;;;10.10;99.90;;;;;;5052102;28;20090;-62
2021/10/05 00:57:43;;;;;;;4.75;1.60;;;10.00;99.90;;;;;;5070270;28;20484;-62
2021/10/05 01:00:10;;;;;;;3.78;1.48;;;10.00;99.90;;;;;;5058824;28;20048;-62
2021/10/05 01:02:36;;;;;;;3.25;1.50;;;9.90;99.90;;;;;;5037252;28;20048;-62
2021/10/05 01:05:02;;;;;;;4.45;1.67;;;9.90;99.90;;;;;;5068630;28;20389;-62
2021/10/05 01:07:27;;;;;;;3.63;2.30;;;9.80;99.90;;;;;;5064920;22;20440;-62
2021/10/05 01:09:55;;;;;;;3.20;1.88;;;9.80;99.90;;;;;;5051509;28;20118;-62
2021/10/05 01:12:20;;;;;;;6.53;2.03;;;9.70;99.90;;;;;;5032724;28;20123;-62
2021/10/05 01:14:46;;;;;;;5.00;1.98;;;9.70;99.90;;;;;;5054021;28;20108;-62
2021/10/05 01:17:12;;;;;;;2.78;1.90;;;9.70;99.90;;;;;;5046084;28;20083;-62
2021/10/05 01:19:40;;;;;;;4.47;1.95;;;9.60;99.90;;;;;;5047449;28;20035;-62
2021/10/05 01:22:06;;;;;;;6.60;2.72;;;9.60;99.90;;;;;;5042745;28;20076;-62
2021/10/05 01:24:32;;;;;;;4.80;2.53;;;9.60;99.90;;;;;;5029200;28;20442;-62
2021/10/05 01:26:58;;;;;;;8.23;3.17;;;9.50;99.90;;;;;;5023430;28;20395;-62
2021/10/05 01:29:26;;;;;;;6.65;3.08;;;9.50;99.90;;;;;;5027923;28;20048;-62
2021/10/05 01:31:54;;;;;;;6.50;2.78;;;9.50;99.90;;;;;;5049861;28;20085;-62
2021/10/05 01:34:22;;;;;;;4.63;2.78;;;9.40;99.90;;;;;;5050762;28;20398;-62
2021/10/05 01:36:49;;;;;;;5.68;3.15;;;9.40;99.90;;;;;;5050078;28;20049;-62
2021/10/05 01:39:28;;;;;;;4.28;2.95;;;9.40;99.90;;;;;;5032838;28;20044;-62
2021/10/05 01:42:06;;;;;;;4.90;3.30;;;9.40;99.90;;;;;;5044541;28;20037;-62
2021/10/05 01:44:33;;;;;;;3.88;3.15;;;9.40;99.90;;;;;;5054376;28;20037;-62
2021/10/05 01:47:01;;;;;;;5.20;3.65;;;9.30;99.90;;;;;;5046469;28;20091;-62
2021/10/05 01:49:27;;;;;;;5.07;3.28;;;9.30;99.90;;;;;;5031700;28;20045;-62
2021/10/05 01:51:53;;;;;;;5.82;3.85;;;9.30;99.90;;;;;;5050417;28;20052;-62
2021/10/05 01:54:19;;;;;;;8.13;3.22;;;9.30;99.90;;;;;;5030508;28;20048;-62
2021/10/05 01:56:45;;;;;;;6.60;3.35;;;9.20;99.90;;;;;;5050988;28;20044;-62
2021/10/05 01:59:11;;;;;;;7.18;3.30;;;9.20;99.90;;;;;;5049725;28;20045;-62
2021/10/05 02:01:39;;;;;;;8.50;4.00;;;9.20;99.90;;;;;;5050077;28;20337;-62
2021/10/05 02:04:05;;;;;;;5.90;3.45;;;9.20;99.90;;;;;;5031106;28;20472;-62
2021/10/05 02:06:31;;;;;;;5.45;3.90;;;9.20;99.90;;;;;;5050472;28;20474;-62
2021/10/05 02:08:57;;;;;;;5.85;3.95;;;9.20;99.90;;;;;;5049956;28;20053;-62
2021/10/05 02:11:22;;;;;;;7.93;4.07;;;9.20;99.90;;;;;;5049158;28;20099;-62
2021/10/05 02:13:48;;;;;;;5.97;4.00;;;9.20;99.90;;;;;;5048703;28;20033;-62
2021/10/05 02:16:13;;;;;;;7.05;4.03;;;9.20;99.90;;;;;;5050639;28;20063;-62
2021/10/05 02:18:39;;;;;;;6.20;3.92;;;9.20;99.90;;;;;;5036443;28;20046;-62
2021/10/05 02:21:04;;;;;;;7.38;3.72;;;9.20;99.90;;;;;;5046576;28;20045;-62
2021/10/05 02:23:37;;;;;;;6.82;4.22;;;9.20;99.90;;;;;;5038084;28;20075;-62
2021/10/05 02:26:03;;;;;;;7.68;3.60;;;9.20;99.90;;;;;;5048091;28;20044;-62
2021/10/05 02:28:28;;;;;;;5.85;4.05;;;9.20;99.90;;;;;;5026719;28;20402;-62
2021/10/05 02:30:54;;;;;;;5.18;3.60;;;9.20;99.90;;;;;;5041811;28;20038;-62
2021/10/05 02:33:19;;;;;;;7.30;4.40;;;9.20;99.90;;;;;;5043406;28;20044;-62
2021/10/05 02:35:45;;;;;;;7.50;4.78;;;9.20;99.90;;;;;;5050746;28;20044;-62
2021/10/05 02:38:10;;;;;;;7.50;4.60;;;9.20;99.90;;;;;;5032342;28;20425;-62
2021/10/05 02:40:36;;;;;;;7.75;4.93;;;9.20;99.90;;;;;;5044292;28;20048;-62
2021/10/05 02:43:01;;;;;;;8.95;5.00;;;9.20;99.90;;;;;;5026786;28;20047;-62
2021/10/05 02:45:27;;;;;;;6.53;4.93;;;9.20;99.90;;;;;;5048012;28;20033;-62
2021/10/05 02:47:53;;;;;;;7.15;5.32;;;9.20;99.90;;;;;;5031619;28;20053;-62
2021/10/05 02:50:18;;;;;;;6.43;5.15;;;9.10;99.90;;;;;;5047049;28;20573;-62
2021/10/05 02:52:44;;;;;;;5.78;5.10;;;9.10;99.90;;;;;;5037936;28;20030;-62
2021/10/05 02:55:10;;;;;;;6.68;5.22;;;9.10;99.90;;;;;;5023992;28;20487;-62
2021/10/05 02:57:35;;;;;;;6.07;4.85;;;9.10;99.90;;;;;;5042782;28;20029;-62
2021/10/05 03:00:01;;;;;;;9.70;5.57;;;9.10;99.90;;;;;;5027198;28;20448;-62
2021/10/05 03:02:28;;;;;;;7.97;5.72;;;9.00;99.90;;;;;;5049389;28;20231;-62
2021/10/05 03:04:53;;;;;;;6.60;5.65;;;9.00;99.90;;;;;;5030468;28;20060;-62
2021/10/05 03:07:19;;;;;;;6.38;5.63;;;9.00;99.90;;;;;;5028115;28;20065;-62
2021/10/05 03:09:44;;;;;;;6.97;5.80;;;9.00;99.90;;;;;;5049295;28;20045;-62
2021/10/05 03:12:10;;;;;;;7.38;6.18;;;9.00;99.90;;;;;;5049510;28;20068;-62
2021/10/05 03:14:36;;;;;;;7.88;5.88;;;9.00;99.90;;;;;;5031643;28;20080;-62
2021/10/05 03:17:01;;;;;;;7.88;5.97;;;9.00;99.90;;;;;;5051917;28;20032;-62
2021/10/05 03:19:27;;;;;;;8.00;6.13;;;9.00;99.90;;;;;;5053360;28;20486;-62
2021/10/05 03:21:52;;;;;;;7.47;6.32;;;9.00;99.90;;;;;;5022475;28;20498;-62
2021/10/05 03:24:18;;;;;;;10.65;6.95;;;9.00;99.90;;;;;;5040576;28;20375;-62
2021/10/05 03:26:43;;;;;;;7.78;6.97;;;9.00;99.90;;;;;;5049321;28;20436;-63
2021/10/05 03:29:10;;;;;;;7.93;6.70;;;9.00;99.90;;;;;;5047758;28;20037;-63
2021/10/05 03:31:36;;;;;;;7.75;6.65;;;9.00;99.90;;;;;;5048092;28;20471;-62
2021/10/05 03:34:01;;;;;;;8.90;7.43;;;9.00;99.90;;;;;;5034522;28;20052;-62
2021/10/05 03:36:27;;;;;;;7.95;6.78;;;9.00;99.90;;;;;;5052057;28;20687;-62
2021/10/05 03:38:53;;;;;;;12.27;7.55;;;9.00;99.90;;;;;;5052425;28;20037;-62
2021/10/05 03:41:18;;;;;;;9.02;6.63;;;9.00;99.90;;;;;;5046083;28;20041;-62
2021/10/05 03:43:44;;;;;;;9.45;6.90;;;9.00;99.90;;;;;;5050760;28;20478;-62
2021/10/05 03:46:09;;;;;;;7.65;6.70;;;9.00;99.90;;;;;;5034571;28;20115;-62
2021/10/05 03:48:35;;;;;;;7.32;6.68;;;9.00;99.90;;;;;;5052171;28;20079;-62
2021/10/05 03:51:01;;;;;;;7.90;6.70;;;9.00;99.90;;;;;;5050839;28;20096;-62
2021/10/05 03:53:27;;;;;;;8.95;6.93;;;9.10;99.90;;;;;;5034288;28;20068;-62
2021/10/05 03:55:55;;;;;;;8.52;7.63;;;9.00;99.90;;;;;;5041023;28;20079;-62
2021/10/05 03:58:22;;;;;;;8.95;7.20;;;9.00;99.90;;;;;;5063207;28;20040;-62
2021/10/05 04:00:48;;;;;;;8.45;6.93;;;9.10;99.90;;;;;;5031851;28;20051;-62
2021/10/05 04:03:14;;;;;;;10.15;7.20;;;9.10;99.90;;;;;;5052769;28;20427;-62
2021/10/05 04:05:40;;;;;;;7.10;6.32;;;9.10;99.90;;;;;;5017805;28;20045;-62
2021/10/05 04:08:06;;;;;;;7.53;6.57;;;9.10;99.90;;;;;;5027544;28;20072;-62
2021/10/05 04:10:32;;;;;;;8.32;6.88;;;9.10;99.90;;;;;;5035015;28;20038;-62
2021/10/05 04:12:58;;;;;;;9.27;7.43;;;9.10;99.90;;;;;;5034829;28;20099;-62
2021/10/05 04:15:24;;;;;;;9.00;6.90;;;9.10;99.90;;;;;;5022085;28;20402;-62
2021/10/05 04:17:49;;;;;;;7.40;6.70;;;9.10;99.90;;;;;;5023841;28;20051;-62
2021/10/05 04:20:15;;;;;;;8.50;6.88;;;9.10;99.90;;;;;;5052888;28;20045;-62
2021/10/05 04:22:41;;;;;;;9.35;6.93;;;9.10;99.90;;;;;;5051862;28;20478;-62
2021/10/05 04:25:08;;;;;;;8.00;7.05;;;9.10;99.90;;;;;;5053152;28;20033;-62
2021/10/05 04:27:34;;;;;;;8.65;6.78;;;9.10;99.90;;;;;;5033904;28;20060;-62
2021/10/05 04:30:00;;;;;;;7.57;6.40;;;9.10;99.90;;;;;;5049717;28;20069;-62
2021/10/05 04:32:26;;;;;;;9.00;6.70;;;9.10;99.90;;;;;;5040919;28;20053;-62
2021/10/05 04:34:52;;;;;;;8.95;6.20;;;9.10;99.90;;;;;;5046222;28;20047;-62
2021/10/05 04:37:17;;;;;;;7.93;6.55;;;9.20;99.90;;;;;;5031028;28;20045;-62
2021/10/05 04:39:43;;;;;;;7.20;6.57;;;9.20;99.90;;;;;;5033560;28;20048;-62
2021/10/05 04:42:09;;;;;;;7.35;6.38;;;9.20;99.90;;;;;;5050926;28;20040;-62
2021/10/05 04:44:35;;;;;;;8.57;6.25;;;9.20;99.90;;;;;;5049483;28;20444;-62
2021/10/05 04:47:01;;;;;;;7.25;6.55;;;9.20;99.90;;;;;;5050096;28;20045;-62
2021/10/05 04:49:26;;;;;;;8.52;6.28;;;9.20;99.90;;;;;;5048071;28;20032;-62
2021/10/05 04:51:52;;;;;;;8.82;6.38;;;9.10;99.90;;;;;;5051210;28;20128;-62
2021/10/05 04:54:18;;;;;;;7.60;6.85;;;9.20;99.90;;;;;;5032791;28;20037;-62
2021/10/05 04:56:43;;;;;;;8.85;6.53;;;9.20;99.90;;;;;;5052005;28;20036;-62
2021/10/05 04:59:09;;;;;;;7.55;6.60;;;9.10;99.90;;;;;;5050331;28;20055;-62
2021/10/05 05:01:34;;;;;;;7.28;6.47;;;9.20;99.90;;;;;;5051498;28;20072;-62
2021/10/05 05:04:00;;;;;;;8.85;7.25;;;9.10;99.90;;;;;;5030267;28;20041;-62
2021/10/05 05:06:26;;;;;;;8.27;6.90;;;9.10;99.90;;;;;;5033089;28;20083;-62
2021/10/05 05:08:51;;;;;;;7.80;7.00;;;9.20;99.90;;;;;;5034312;28;20540;-62
2021/10/05 05:11:17;;;;;;;8.50;7.18;;;9.10;99.90;;;;;;5050610;28;20493;-62
2021/10/05 05:13:42;;;;;;;7.88;7.10;;;9.10;99.90;;;;;;5043628;28;20452;-62
2021/10/05 05:16:08;;;;;;;6.88;6.18;;;9.10;99.90;;;;;;5045573;28;20517;-62
2021/10/05 05:18:33;;;;;;;10.23;7.57;;;9.10;99.90;;;;;;5039984;28;20508;-62
2021/10/05 05:20:59;;;;;;;7.72;6.90;;;9.10;99.90;;;;;;5045843;28;20044;-62
2021/10/05 05:23:24;;;;;;;9.15;7.00;;;9.10;99.90;;;;;;5047014;28;20039;-62
2021/10/05 05:25:50;;;;;;;7.25;6.55;;;9.10;99.90;;;;;;5050184;28;20040;-62
2021/10/05 05:28:16;;;;;;;7.40;6.10;;;9.10;99.90;;;;;;5046306;28;20044;-62
2021/10/05 05:30:41;;;;;;;8.52;6.95;;;9.10;99.90;;;;;;5027109;28;20387;-62
2021/10/05 05:33:07;;;;;;;9.20;7.20;;;9.10;99.90;;;;;;5027509;28;20123;-62
2021/10/05 05:35:33;;;;;;;7.30;6.55;;;9.10;99.90;;;;;;5035195;28;20056;-62
2021/10/05 05:37:58;;;;;;;8.02;7.18;;;9.10;99.90;;;;;;5049349;28;20037;-62
2021/10/05 05:40:24;;;;;;;10.10;7.35;;;9.10;99.90;;;;;;5049536;28;20597;-62
2021/10/05 05:42:50;;;;;;;8.52;6.90;;;9.10;99.90;;;;;;5049309;28;20033;-62
2021/10/05 05:45:15;;;;;;;8.70;6.60;;;9.10;99.90;;;;;;5042102;28;20376;-61
2021/10/05 05:47:41;;;;;;;8.98;7.03;;;9.10;99.90;;;;;;5030854;28;20055;-61
2021/10/05 05:50:08;;;;;;;12.43;7.65;;;9.10;99.90;;;;;;5047704;28;20467;-61
2021/10/05 05:52:34;;;;;;;9.70;7.50;;;9.10;99.90;;;;;;5049361;28;20045;-61
2021/10/05 05:55:00;;;;;;;7.85;6.97;;;9.10;99.90;;;;;;5033355;28;20048;-61
2021/10/05 05:57:25;;;;;;;7.82;6.88;;;9.10;99.90;;;;;;5035090;28;20418;-61
2021/10/05 05:59:51;;;;;;;9.05;6.97;;;9.10;99.90;;;;;;5050290;28;20029;-61
2021/10/05 06:02:17;;;;;;;10.25;7.15;;;9.10;99.90;;;;;;5045595;28;20029;-61
2021/10/05 06:04:42;;;;;;;8.30;7.00;;;9.10;99.90;;;;;;5032686;28;20091;-61
2021/10/05 06:07:10;;;;;;;8.05;6.97;;;9.10;99.90;;;;;;5028422;28;20384;-61
2021/10/05 06:09:36;;;;;;;10.35;7.78;;;9.10;99.90;;;;;;5027599;28;20049;-61
2021/10/05 06:12:04;;;;;;;9.57;7.70;;;9.10;99.90;;;;;;5030828;28;20045;-61
2021/10/05 06:14:30;;;;;;;11.20;7.25;;;9.00;99.90;;;;;;5024549;28;20491;-61
2021/10/05 06:16:57;;;;;;;9.75;7.88;;;9.10;99.90;;;;;;5031091;28;20072;-61
2021/10/05 06:19:23;;;;;;;11.82;7.97;;;9.10;99.90;;;;;;5024750;28;20070;-61
2021/10/05 06:21:49;;;;;;;14.13;8.18;;;9.10;99.90;;;;;;5029218;28;20470;-61
2021/10/05 06:24:15;;;;;;;8.57;7.55;;;9.10;99.90;;;;;;5030494;28;20045;-61
2021/10/05 06:26:40;;;;;;;8.52;7.63;;;9.10;99.90;;;;;;5029408;28;20049;-61
2021/10/05 06:29:06;;;;;;;8.45;7.65;;;9.30;99.90;;;;;;5029367;28;20056;-61
2021/10/05 06:31:32;;;;;;;8.27;7.47;;;9.30;99.90;;;;;;5030553;28;20040;-61
2021/10/05 06:33:57;;;;;;;10.68;7.20;;;9.40;99.90;;;;;;5029028;28;20041;-61
2021/10/05 06:36:23;;;;;;;9.27;7.43;;;9.40;99.90;;;;;;5028234;28;20096;-61
2021/10/05 06:38:48;;;;;;;8.02;7.22;;;9.40;99.90;;;;;;5030631;28;20456;-61
2021/10/05 06:41:14;;;;;;;9.45;7.78;;;9.50;99.90;;;;;;5030471;28;20077;-62
2021/10/05 06:43:39;;;;;;;7.57;6.80;;;9.70;99.90;;;;;;5030780;28;20037;-61
2021/10/05 06:46:05;;;;;;;7.25;6.47;;;10.40;99.90;;;;;;5028966;28;20049;-62
2021/10/05 06:48:30;;;;;;;7.10;6.40;;;11.10;99.90;;;;;;5030678;28;20045;-62
2021/10/05 06:50:56;;;;;;;6.43;5.82;;;11.50;99.90;;;;;;5032373;28;20586;-61
2021/10/05 06:53:22;;;;;;;6.45;5.80;;;11.90;99.90;;;;;;5031424;28;20099;-61
2021/10/05 06:55:47;;;;;;;6.15;5.55;;;12.10;99.90;;;;;;5033796;28;20037;-61
2021/10/05 06:58:14;;;;;;;5.70;5.20;;;12.40;99.90;;;;;;5032428;28;20092;-62
2021/10/05 07:00:40;;;;;;;6.97;5.57;;;12.80;99.90;;;;;;5033268;28;20053;-61
2021/10/05 07:03:06;;;;;;;7.22;4.50;;;13.20;99.90;;;;;;5033730;28;20475;-62
2021/10/05 07:05:31;;;;;;;5.20;4.75;;;13.60;99.90;;;;;;5032718;28;20122;-63
2021/10/05 07:07:57;;;;;;;6.80;5.22;;;13.20;99.90;;;;;;5035687;28;20060;-62
2021/10/05 07:10:23;;;;;;;5.45;4.95;;;12.90;99.90;;;;;;5041589;28;20036;-62
2021/10/05 07:12:50;;;;;;;6.43;4.72;;;12.70;99.90;;;;;;5053908;28;20044;-62
2021/10/05 07:15:16;;;;;;;7.38;4.95;;;12.50;99.90;;;;;;5028309;28;20056;-62
2021/10/05 07:17:43;;;;;;;5.20;4.68;;;12.10;99.90;;;;;;5052312;28;20116;-62
2021/10/05 07:20:10;;;;;;;5.40;4.90;;;11.80;99.90;;;;;;5051907;28;20059;-62
2021/10/05 07:22:35;;;;;;;5.80;5.13;;;11.70;99.90;;;;;;5052643;28;20036;-62
2021/10/05 07:25:02;;;;;;;7.05;5.55;;;11.50;99.90;;;;;;5049885;28;20056;-62
2021/10/05 07:27:28;;;;;;;5.70;5.05;;;11.30;99.90;;;;;;5052439;28;20061;-62
2021/10/05 07:29:54;;;;;;;6.05;5.13;;;11.30;99.90;;;;;;5035148;28;20090;-62
2021/10/05 07:32:19;;;;;;;5.53;4.93;;;11.30;99.90;;;;;;5018948;28;20386;-62
2021/10/05 07:34:45;;;;;;;6.40;5.30;;;11.50;99.90;;;;;;5045967;28;20025;-62
2021/10/05 07:37:11;;;;;;;5.75;4.80;;;11.90;99.90;;;;;;5035383;28;20124;-62
2021/10/05 07:39:37;;;;;;;6.70;4.53;;;12.10;99.90;;;;;;5051522;28;20076;-62
2021/10/05 07:42:03;;;;;;;5.13;4.65;;;12.10;99.90;;;;;;5048456;28;20402;-62
2021/10/05 07:44:33;;;;;;;5.30;4.80;;;12.10;99.90;;;;;;5048917;28;20029;-62
2021/10/05 07:46:59;;;;;;;4.97;4.47;;;12.10;99.90;;;;;;5049060;28;20033;-62
2021/10/05 07:49:25;;;;;;;6.60;4.38;;;12.10;99.90;;;;;;5047625;28;20045;-62
2021/10/05 07:51:51;;;;;;;5.88;5.28;;;12.10;99.90;;;;;;5052813;28;20128;-62
2021/10/05 07:54:17;;;;;;;4.55;4.15;;;12.10;99.90;;;;;;5052234;28;20120;-62
2021/10/05 07:56:42;;;;;;;4.88;4.45;;;12.10;99.90;;;;;;5044391;28;20033;-62
2021/10/05 07:59:08;;;;;;;4.45;4.05;;;12.20;99.90;;;;;;5041569;28;20060;-62
2021/10/05 08:01:36;;;;;;;5.60;4.30;;;12.20;99.90;;;;;;5025491;28;20080;-62
2021/10/05 08:04:02;;;;;;;4.80;4.40;;;12.30;99.90;;;;;;5047168;28;20116;-62
2021/10/05 08:06:27;;;;;;;5.20;4.70;;;12.30;99.90;;;;;;5034126;28;20123;-61
2021/10/05 08:08:53;;;;;;;4.50;4.05;;;12.30;99.90;;;;;;5051655;28;20569;-62
2021/10/05 08:11:21;;;;;;;4.70;4.22;;;12.40;99.90;;;;;;5015263;28;20045;-62
2021/10/05 08:13:47;;;;;;;6.72;4.55;;;12.30;99.90;;;;;;5048692;28;20501;-61
2021/10/05 08:16:13;;;;;;;5.03;4.63;;;12.30;99.90;;;;;;5052506;28;20041;-62
2021/10/05 08:18:38;;;;;;;4.80;4.40;;;12.20;99.90;;;;;;5045368;28;20047;-62
2021/10/05 08:21:04;;;;;;;5.78;4.90;;;12.10;99.90;;;;;;5062812;22;20123;-63
2021/10/05 08:23:30;;;;;;;5.20;4.68;;;12.00;99.90;;;;;;5086615;28;20427;-64
2021/10/05 08:25:55;;;;;;;7.07;4.90;;;11.90;99.90;;;;;;5084500;28;20438;-64
2021/10/05 08:28:21;;;;;;;5.40;4.90;;;11.90;99.90;;;;;;5090916;28;20446;-64
2021/10/05 08:30:48;;;;;;;7.70;4.53;;;11.90;99.90;;;;;;5089266;28;20043;-64
2021/10/05 08:33:14;;;;;;;9.25;5.47;;;11.90;99.90;;;;;;5089339;28;20054;-64
2021/10/05 08:35:40;;;;;;;6.85;4.97;;;12.00;99.90;;;;;;5075364;28;20097;-64
2021/10/05 08:38:05;;;;;;;8.95;5.13;;;12.00;99.90;;;;;;5085586;28;20447;-64
2021/10/05 08:40:33;;;;;;;9.05;5.18;;;12.00;99.90;;;;;;5090138;28;20053;-64
2021/10/05 08:42:59;;;;;;;7.60;4.85;;;12.10;99.90;;;;;;5091245;28;20550;-65
2021/10/05 08:45:25;;;;;;;6.45;5.03;;;12.20;99.90;;;;;;5090885;28;20419;-65
2021/10/05 08:47:51;;;;;;;5.50;4.85;;;12.30;99.90;;;;;;5091040;28;20040;-65
2021/10/05 08:50:17;;;;;;;8.82;5.28;;;12.40;99.90;;;;;;5090748;28;20044;-65
2021/10/05 08:52:44;;;;;;;5.90;4.93;;;12.40;99.90;;;;;;5073048;28;20040;-65
2021/10/05 08:55:10;;;;;;;5.30;4.78;;;12.50;99.90;;;;;;5088645;28;20036;-65
2021/10/05 08:57:36;;;;;;;6.85;4.47;;;12.70;99.90;;;;;;5088076;28;20039;-65
2021/10/05 09:00:04;;;;;;;6.70;5.15;;;12.70;99.90;;;;;;5078866;28;20044;-65
2021/10/05 09:02:51;;;;;;;5.30;4.80;;;12.80;99.90;;;;;;5089686;28;20040;-65
2021/10/05 09:05:17;;;;;;;6.47;4.30;;;12.90;99.90;;;;;;5089022;28;20085;-64
2021/10/05 09:07:45;;;;;;;5.88;4.50;;;13.00;99.90;;;;;;5089164;28;20048;-64
2021/10/05 09:10:17;;;;;;;4.80;4.00;;;13.00;99.90;;;;;;5088781;28;20040;-64
2021/10/05 09:12:43;;;;;;;5.25;3.90;;;13.10;99.90;;;;;;5088953;28;20040;-64
2021/10/05 09:15:11;;;;;;;7.78;4.55;;;13.20;99.90;;;;;;5081875;28;20051;-64
2021/10/05 09:17:37;;;;;;;5.35;4.32;;;13.20;99.90;;;;;;5080528;28;20040;-64
2021/10/05 09:20:34;;;;;;;6.38;4.22;;;13.30;99.90;;;;;;5089058;28;20458;-64
2021/10/05 09:23:08;;;;;;;5.20;3.85;;;13.40;99.90;;;;;;5087432;28;20044;-64
2021/10/05 09:25:40;;;;;;;5.03;4.05;;;13.50;99.90;;;;;;5089850;28;20046;-64
2021/10/05 09:28:16;;;;;;;;;;;13.50;99.90;;;;;;5084884;28;20040;-64
2021/10/05 09:30:41;;;;;;;6.63;3.90;;;13.60;99.90;;;;;;5088224;28;19968;-64
2021/10/05 09:33:08;;;;;;;5.78;4.13;;;13.60;99.90;;;;;;5085140;28;20035;-64
2021/10/05 09:35:45;;;;;;;5.30;4.00;;;13.70;99.90;;;;;;5081873;28;20040;-64
2021/10/05 09:38:20;;;;;;;5.25;3.53;;;13.80;99.90;;;;;;5084342;28;20047;-64
2021/10/05 09:40:56;;;;;;;6.75;3.90;;;13.90;99.90;;;;;;5080787;28;20426;-64
2021/10/05 09:43:23;;;;;;;4.45;3.30;;;14.00;99.90;;;;;;5082109;28;20040;-64
2021/10/05 09:45:49;;;;;;;4.30;3.38;;;14.10;99.90;;;;;;5082320;28;20570;-64
2021/10/05 09:48:15;;;;;;;4.30;3.08;;;14.20;99.90;;;;;;5082950;28;20036;-64
2021/10/05 09:50:41;;;;;;;5.53;3.60;;;14.20;99.90;;;;;;5082751;28;20073;-64
2021/10/05 09:53:12;;;;;;;5.07;3.33;;;14.30;99.90;;;;;;5084894;28;20047;-64
2021/10/05 09:55:40;;;;;;;5.32;3.30;;;14.40;99.90;;;;;;5088360;28;20047;-64
2021/10/05 09:58:07;;;;;;;4.63;2.83;;;14.50;99.90;;;;;;5083898;28;20058;-65
2021/10/05 10:00:36;;;;;;;3.50;3.20;;;14.70;99.90;;;;;;5079447;28;20393;-65
2021/10/05 10:03:05;;;;;;;4.65;2.92;;;14.80;99.90;;;;;;5081351;28;20032;-64
2021/10/05 10:05:31;;;;;;;6.13;2.70;;;14.80;99.90;;;;;;5085732;28;20082;-64
2021/10/05 10:07:58;;;;;;;3.15;2.38;;;14.90;99.90;;;;;;5086889;28;20044;-65
2021/10/05 10:10:29;;;;;;;3.25;2.75;;;15.00;99.90;;;;;;5087604;28;20036;-64
2021/10/05 10:13:01;;;;;;;3.58;2.10;;;15.00;99.90;;;;;;5090104;28;20508;-64
2021/10/05 10:15:35;;;;;;;3.17;2.20;;;15.20;99.90;;;;;;5070920;28;20041;-64
2021/10/05 10:18:13;;;;;;;3.72;2.30;;;15.30;99.90;;;;;;5079370;28;20048;-64
2021/10/05 10:20:42;;;;;;;3.40;1.90;;;15.50;99.90;;;;;;5074564;28;20053;-64
2021/10/05 10:23:23;;;;;;;3.38;2.10;;;15.60;99.90;;;;;;5078494;28;20550;-64
2021/10/05 10:25:59;;;;;;;3.10;1.77;;;15.70;99.90;;;;;;5071818;28;20071;-64
2021/10/05 10:28:37;;;;;;;2.50;1.70;;;15.80;99.90;;;;;;5085833;28;20047;-64
2021/10/05 10:31:09;;;;;;;3.92;1.70;;;16.00;99.90;;;;;;5083419;28;20085;-64
2021/10/05 10:33:45;;;;;;;;;;;16.00;99.90;;;;;;5084457;28;20405;-64
2021/10/05 10:36:11;;;;;;;4.00;2.20;;;16.10;99.90;;;;;;5090426;28;19919;-64
2021/10/05 10:38:42;;;;;;;2.10;1.40;;;16.00;99.90;;;;;;5071491;28;20041;-64
2021/10/05 10:41:15;;;;;;;4.13;1.70;;;16.00;99.90;;;;;;5072467;28;20123;-64
2021/10/05 10:43:51;;;;;;;4.53;1.60;;;16.00;99.90;;;;;;5088239;28;20040;-64
2021/10/05 10:46:26;;;;;;;3.83;1.52;;;16.10;99.90;;;;;;5092924;28;20058;-64
2021/10/05 10:48:54;;;;;;;2.58;1.40;;;16.30;99.90;;;;;;5094326;28;20381;-64
2021/10/05 10:51:20;;;;;;;2.08;1.25;;;16.40;99.90;;;;;;5093872;28;20036;-64
2021/10/05 10:53:46;;;;;;;4.25;1.52;;;16.60;99.90;;;;;;5093686;28;20058;-64
2021/10/05 10:56:30;;;;;;;2.38;1.30;;;16.80;99.90;;;;;;5092392;28;20040;-64
2021/10/05 10:59:08;;;;;;;3.10;1.40;;;16.90;99.90;;;;;;5093701;28;20127;-64
2021/10/05 11:01:46;;;;;;;1.58;0.95;;;17.00;99.90;;;;;;5092194;28;20255;-64
2021/10/05 11:04:15;;;;;;;3.55;1.23;;;17.00;99.90;;;;;;5092472;28;20440;-64
2021/10/05 11:06:47;;;;;;;1.38;1.00;;;17.20;99.90;;;;;;5093447;28;20108;-64
2021/10/05 11:09:14;;;;;;;2.08;1.00;;;17.20;99.90;;;;;;5093774;28;20055;-64
2021/10/05 11:11:42;;;;;;;2.72;1.52;;;17.20;99.90;;;;;;5092185;28;20036;-64
2021/10/05 11:14:10;;;;;;;3.72;1.50;;;17.40;99.90;;;;;;5093927;28;20036;-64
2021/10/05 11:16:38;;;;;;;3.13;1.45;;;17.40;99.90;;;;;;5093042;28;20396;-64
2021/10/05 11:19:06;;;;;;;2.63;1.45;;;17.50;99.90;;;;;;5091128;28;20086;-64
2021/10/05 11:21:34;;;;;;;2.30;1.40;;;17.50;99.90;;;;;;5093033;28;20172;-63
2021/10/05 11:24:00;;;;;;;1.98;1.50;;;17.40;99.90;;;;;;5093488;28;20048;-63
2021/10/05 11:26:37;;;;;;;3.78;1.58;;;17.30;99.90;;;;;;5093164;28;20040;-64
2021/10/05 11:29:05;;;;;;;2.53;1.80;;;17.40;99.90;;;;;;5093719;28;20044;-64
2021/10/05 11:31:44;;;;;;;2.80;1.67;;;17.50;99.90;;;;;;5093192;28;20040;-64
2021/10/05 11:34:10;;;;;;;2.15;1.48;;;17.40;99.90;;;;;;5092965;28;20473;-64
2021/10/05 11:36:36;;;;;;;2.40;1.83;;;17.50;99.90;;;;;;5090578;28;20040;-64
2021/10/05 11:39:04;;;;;;;5.70;2.00;;;17.50;99.90;;;;;;5091493;28;20058;-64
2021/10/05 11:41:42;;;;;;;2.70;1.65;;;17.50;99.90;;;;;;5092856;28;20039;-64
2021/10/05 11:44:15;;;;;;;4.43;1.75;;;17.40;99.90;;;;;;5091788;28;20048;-64
2021/10/05 11:46:53;;;;;;;4.97;1.92;;;17.40;99.90;;;;;;5072388;28;20562;-64
2021/10/05 11:49:19;;;;;;;3.05;1.77;;;17.40;99.90;;;;;;5088122;28;20068;-64
2021/10/05 11:51:44;;;;;;;2.00;1.13;;;17.40;99.90;;;;;;5087559;28;20032;-64
2021/10/05 11:54:18;;;;;;;6.55;1.60;;;17.50;99.90;;;;;;5091283;28;20044;-64
2021/10/05 11:56:44;;;;;;;2.22;1.83;;;17.60;99.90;;;;;;5092788;28;20036;-64
2021/10/05 11:59:24;;;;;;;2.30;1.50;;;17.60;99.90;;;;;;5091196;28;20061;-64
2021/10/05 12:01:54;;;;;;;4.07;2.00;;;17.60;99.90;;;;;;5092346;28;20050;-64
2021/10/05 12:04:22;;;;;;;4.22;1.65;;;17.70;99.90;;;;;;5092394;28;20043;-64
2021/10/05 12:06:54;;;;;;;4.35;1.40;;;17.70;99.90;;;;;;5090819;28;20369;-64
2021/10/05 12:09:24;;;;;;;3.97;1.75;;;17.80;99.90;;;;;;5077661;28;20044;-64
2021/10/05 12:11:51;;;;;;;2.30;1.38;;;17.80;99.90;;;;;;5090823;28;20043;-64
2021/10/05 12:14:21;;;;;;;1.90;1.40;;;17.80;99.90;;;;;;5081008;28;20044;-64
2021/10/05 12:16:57;;;;;;;3.65;1.58;;;17.90;99.90;;;;;;5071822;28;20049;-64
2021/10/05 12:19:56;;;;;;;2.17;1.30;;;18.00;99.90;;;;;;5071886;28;20052;-64
2021/10/05 12:22:22;;;;;;;2.95;1.48;;;18.20;99.90;;;;;;5082182;28;20056;-64
2021/10/05 12:24:57;;;;;;;2.50;1.50;;;18.40;99.90;;;;;;5091978;28;20401;-64
2021/10/05 12:27:25;;;;;;;1.85;1.33;;;18.50;99.90;;;;;;5091938;28;20044;-64
2021/10/05 12:30:12;;;;;;;1.98;1.20;;;18.80;99.90;;;;;;5089161;28;20096;-64
2021/10/05 12:32:52;;;;;;;4.65;1.58;;;18.70;99.90;;;;;;5088855;28;20078;-64
2021/10/05 12:35:29;;;;;;;2.88;1.17;;;18.80;99.90;;;;;;5071707;28;20043;-64
2021/10/05 12:38:09;;;;;;;3.22;1.20;;;18.90;99.90;;;;;;5070042;28;20076;-64
2021/10/05 12:40:55;;;;;;;1.60;1.10;;;18.80;99.90;;;;;;5070522;28;20452;-64
2021/10/05 12:43:23;;;;;;;5.20;1.10;;;18.90;99.90;;;;;;5071518;28;20040;-64
2021/10/05 12:45:53;;;;;;;4.43;1.42;;;18.80;99.90;;;;;;5071354;28;20087;-64
2021/10/05 12:48:39;;;;;;;5.80;1.65;;;18.70;99.90;;;;;;5070418;28;20497;-64
2021/10/05 12:51:12;;;;;;;3.05;1.48;;;18.50;99.90;;;;;;5071332;28;20493;-64
2021/10/05 12:53:39;;;;;;;2.28;1.10;;;18.30;99.90;;;;;;5071080;28;20101;-64